createdAt,value
2023-11-12T00:03:19.976Z,9.93
2023-11-12T00:08:37.625Z,8.45
2023-11-12T00:13:27.704Z,9.57
2023-11-12T00:18:15.152Z,10.32
2023-11-12T00:23:04.034Z,10.13
2023-11-12T00:27:54.385Z,9.88
2023-11-12T00:32:41.890Z,9.73
2023-11-12T00:37:29.128Z,9.43
2023-11-12T00:42:16.192Z,9.75
2023-11-12T00:47:05.999Z,9.88
2023-11-12T00:51:54.004Z,9.32
2023-11-12T00:56:41.119Z,10.20
2023-11-12T01:01:28.218Z,10.70
2023-11-12T01:06:19.090Z,9.57
2023-11-12T01:11:09.062Z,9.55
2023-11-12T01:15:56.387Z,10.68
2023-11-12T01:20:44.450Z,10.25
2023-11-12T01:25:35.081Z,10.95
2023-11-12T01:30:52.208Z,10.50
2023-11-12T01:35:41.158Z,10.88
2023-11-12T01:40:28.422Z,10.63
2023-11-12T01:45:18.301Z,10.98
2023-11-12T01:50:08.003Z,11.77
2023-11-12T01:54:56.887Z,11.02
2023-11-12T01:59:44.119Z,11.63
2023-11-12T02:04:33.900Z,11.73
2023-11-12T02:09:21.149Z,13.90
2023-11-12T02:14:08.778Z,12.10
2023-11-12T02:18:56.016Z,13.52
2023-11-12T02:23:45.800Z,11.73
2023-11-12T02:28:32.833Z,11.95
2023-11-12T02:33:20.075Z,12.68
2023-11-12T02:38:07.294Z,11.80
2023-11-12T02:42:57.017Z,12.00
2023-11-12T02:47:44.237Z,11.35
2023-11-12T02:52:31.330Z,10.75
2023-11-12T02:57:18.527Z,11.75
2023-11-12T03:02:08.368Z,12.60
2023-11-12T03:06:55.571Z,14.95
2023-11-12T03:11:42.726Z,13.55
2023-11-12T03:16:29.792Z,14.15
2023-11-12T03:21:19.667Z,13.65
2023-11-12T03:26:06.940Z,15.60
2023-11-12T03:30:54.182Z,15.95
2023-11-12T03:35:41.623Z,14.40
2023-11-12T03:40:31.381Z,15.93
2023-11-12T03:45:18.561Z,15.25
2023-11-12T03:50:06.641Z,13.90
2023-11-12T03:54:53.800Z,15.77
2023-11-12T03:59:43.544Z,14.77
2023-11-12T04:04:30.747Z,15.23
2023-11-12T04:09:18.043Z,14.35
2023-11-12T04:14:05.582Z,13.88
2023-11-12T04:18:56.216Z,14.45
2023-11-12T04:23:43.729Z,14.07
2023-11-12T04:28:30.913Z,14.45
2023-11-12T04:33:18.606Z,16.40
2023-11-12T04:38:08.424Z,14.07
2023-11-12T04:42:55.522Z,16.35
2023-11-12T04:47:42.694Z,16.67
2023-11-12T04:52:29.822Z,16.50
2023-11-12T04:57:19.607Z,17.92
2023-11-12T05:02:06.887Z,15.88
2023-11-12T05:06:54.146Z,18.52
2023-11-12T05:11:41.302Z,17.80
2023-11-12T05:16:31.178Z,17.13
2023-11-12T05:21:18.348Z,17.40
2023-11-12T05:26:05.615Z,18.45
2023-11-12T05:30:52.934Z,17.80
2023-11-12T05:35:42.678Z,18.60
2023-11-12T05:40:29.740Z,17.73
2023-11-12T05:45:18.422Z,17.80
2023-11-12T05:50:07.016Z,16.45
2023-11-12T05:55:12.794Z,16.55
2023-11-12T06:00:00.345Z,15.93
2023-11-12T06:04:49.365Z,15.48
2023-11-12T06:09:38.227Z,14.90
2023-11-12T06:14:28.334Z,15.20
2023-11-12T06:19:15.804Z,13.98
2023-11-12T06:24:03.450Z,14.30
2023-11-12T06:28:58.371Z,16.10
2023-11-12T06:33:48.288Z,15.07
2023-11-12T06:38:35.471Z,14.77
2023-11-12T06:43:22.609Z,15.43
2023-11-12T06:48:09.764Z,17.25
2023-11-12T06:53:00.990Z,15.40
2023-11-12T06:57:48.284Z,16.05
2023-11-12T07:02:35.549Z,17.48
2023-11-12T07:07:22.787Z,16.95
2023-11-12T07:12:12.854Z,17.80
2023-11-12T07:17:02.635Z,18.23
2023-11-12T07:21:49.773Z,19.08
2023-11-12T07:26:45.912Z,18.83
2023-11-12T07:31:39.018Z,20.83
2023-11-12T07:36:26.444Z,22.00
2023-11-12T07:41:13.561Z,21.35
2023-11-12T07:46:01.018Z,21.25
2023-11-12T07:50:50.714Z,23.45
2023-11-12T07:55:37.873Z,23.98
2023-11-12T08:00:25.212Z,23.25
2023-11-12T08:05:12.405Z,24.80
2023-11-12T08:10:02.276Z,23.13
2023-11-12T08:14:49.449Z,27.85
2023-11-12T08:19:36.820Z,30.67
2023-11-12T08:24:24.064Z,32.28
2023-11-12T08:29:13.914Z,37.67
2023-11-12T08:34:01.039Z,35.60
2023-11-12T08:38:48.164Z,33.47
2023-11-12T08:43:35.421Z,33.08
2023-11-12T08:48:25.216Z,35.95
2023-11-12T09:20:09.767Z,34.55
2023-11-12T09:25:09.083Z,38.80
2023-11-12T09:30:01.061Z,36.55
2023-11-12T09:34:48.385Z,32.25
2023-11-12T09:39:40.509Z,34.10
2023-11-12T09:45:03.505Z,28.98
2023-11-12T09:49:48.300Z,33.65
2023-11-12T09:54:41.640Z,36.47
2023-11-12T09:59:31.961Z,29.10
2023-11-12T10:04:22.223Z,29.15
2023-11-12T10:09:10.184Z,30.50
2023-11-12T10:14:03.664Z,27.80
2023-11-12T10:18:52.599Z,26.52
2023-11-12T10:23:41.812Z,20.75
2023-11-12T10:28:34.939Z,23.92
2023-11-12T10:33:30.403Z,19.15
2023-11-12T10:43:57.814Z,17.38
2023-11-12T10:48:49.617Z,19.63
2023-11-12T10:53:38.901Z,18.02
2023-11-12T10:58:32.517Z,17.23
2023-11-12T11:03:20.020Z,17.83
2023-11-12T11:08:09.865Z,22.02
2023-11-12T11:12:57.228Z,20.00
2023-11-12T11:17:44.474Z,21.23
2023-11-12T11:22:32.455Z,19.83
2023-11-12T11:27:22.902Z,20.02
2023-11-12T11:32:13.856Z,21.88
2023-11-12T11:37:01.116Z,21.63
2023-11-12T11:42:12.813Z,21.65
2023-11-12T11:47:10.560Z,22.10
2023-11-12T11:51:57.802Z,23.70
2023-11-12T11:56:45.284Z,24.40
2023-11-12T12:01:42.578Z,26.02
2023-11-12T12:06:35.018Z,25.23
2023-11-12T12:11:22.203Z,24.95
2023-11-12T12:16:09.609Z,22.38
2023-11-12T12:20:57.249Z,22.73
2023-11-12T12:25:55.390Z,23.00
2023-11-12T12:30:52.089Z,24.02
2023-11-12T12:35:39.896Z,22.77
2023-11-12T12:40:27.631Z,23.98
2023-11-12T12:45:18.252Z,23.88
2023-11-12T12:50:25.357Z,24.95
2023-11-12T12:55:16.300Z,24.85
2023-11-12T13:00:03.975Z,25.83
2023-11-12T13:04:54.655Z,28.50
2023-11-12T13:10:00.589Z,23.38
2023-11-12T13:14:51.769Z,26.92
2023-11-12T13:19:39.187Z,25.88
2023-11-12T13:35:00.660Z,18.60
2023-11-12T13:39:51.165Z,16.48
2023-11-12T13:44:39.583Z,18.85
2023-11-12T14:42:29.301Z,16.65
2023-11-12T14:47:16.623Z,15.30
2023-11-12T14:52:09.347Z,16.17
2023-11-12T14:57:06.263Z,17.50
2023-11-12T15:01:56.096Z,16.52
2023-11-12T15:06:43.342Z,16.98
2023-11-12T15:11:30.713Z,19.63
2023-11-12T15:16:21.720Z,21.13
2023-11-12T15:21:11.632Z,20.77
2023-11-12T15:25:59.156Z,21.15
2023-11-12T15:30:46.446Z,20.38
2023-11-12T15:35:34.234Z,21.60
2023-11-12T15:40:24.609Z,20.10
2023-11-12T15:45:13.532Z,23.25
2023-11-12T15:50:00.881Z,22.60
2023-11-12T15:54:48.284Z,24.83
2023-11-12T15:59:41.157Z,28.05
2023-11-12T16:04:28.620Z,24.45
2023-11-12T16:09:15.959Z,26.88
2023-11-12T16:14:05.537Z,27.92
2023-11-12T16:19:03.861Z,27.27
2023-11-12T16:23:51.156Z,30.77
2023-11-12T16:28:39.348Z,27.73
2023-11-12T16:33:28.936Z,32.45
2023-11-12T16:38:20.257Z,29.70
2023-11-12T16:43:07.715Z,30.45
2023-11-12T16:47:54.950Z,27.67
2023-11-12T16:52:45.845Z,29.20
2023-11-12T16:57:35.759Z,30.10
2023-11-12T17:02:23.190Z,28.48
2023-11-12T17:07:10.422Z,27.63
2023-11-12T17:11:57.668Z,29.10
2023-11-12T17:16:50.737Z,29.13
2023-11-12T17:21:39.924Z,30.75
2023-11-12T17:26:27.130Z,28.80
2023-11-12T17:31:14.478Z,31.88
2023-11-12T17:36:04.774Z,30.77
2023-11-12T17:40:52.034Z,30.52
2023-11-12T17:45:39.248Z,33.30
2023-11-12T17:50:28.962Z,33.17
2023-11-12T17:55:28.640Z,31.30
2023-11-12T18:00:19.773Z,34.20
2023-11-12T18:05:11.882Z,38.63
2023-11-12T18:09:59.797Z,42.78
2023-11-12T18:14:54.851Z,39.03
2023-11-12T18:19:42.195Z,34.00
2023-11-12T18:24:31.820Z,32.50
2023-11-12T18:29:19.146Z,36.70
2023-11-12T18:34:09.405Z,35.35
2023-11-12T18:38:59.783Z,32.28
2023-11-12T18:43:47.018Z,33.22
2023-11-12T18:48:34.619Z,30.50
2023-11-12T18:53:24.861Z,33.10
2023-11-12T18:58:12.218Z,30.23
2023-11-12T19:02:59.393Z,34.13
2023-11-12T19:07:47.064Z,34.08
2023-11-12T19:12:37.751Z,33.10
2023-11-12T19:17:25.314Z,37.15
2023-11-12T19:22:12.789Z,34.03
2023-11-12T19:27:00.127Z,37.22
2023-11-12T19:31:49.964Z,34.75
2023-11-12T19:36:39.766Z,35.35
2023-11-12T19:41:27.091Z,35.85
2023-11-12T19:46:14.451Z,34.72
2023-11-12T19:51:06.163Z,33.97
2023-11-12T19:55:59.010Z,33.03
2023-11-12T20:00:46.326Z,38.35
2023-11-12T20:05:33.634Z,40.28
2023-11-12T20:10:26.619Z,38.45
2023-11-12T20:15:16.546Z,35.38
2023-11-12T20:20:04.575Z,35.97
2023-11-12T20:24:51.914Z,36.72
2023-11-12T20:29:41.730Z,37.60
2023-11-12T20:34:28.912Z,34.55
2023-11-12T20:39:16.245Z,35.00
2023-11-12T20:44:03.474Z,33.78
2023-11-12T20:49:23.710Z,33.40
2023-11-12T20:54:18.678Z,31.80
2023-11-12T20:59:05.846Z,32.90
2023-11-12T21:03:55.803Z,32.03
2023-11-12T21:08:43.346Z,31.73
2023-11-12T21:13:30.578Z,30.25
2023-11-12T21:18:17.833Z,32.10
2023-11-12T21:23:07.804Z,31.65
2023-11-12T21:28:02.964Z,34.25
2023-11-12T21:33:04.442Z,33.20
2023-11-12T21:37:59.201Z,27.45
2023-11-12T21:42:53.250Z,29.90
2023-11-12T21:47:41.408Z,26.90
2023-11-12T21:52:44.361Z,26.40
2023-11-12T21:57:32.273Z,31.83
2023-11-12T22:02:34.256Z,31.63
2023-11-12T22:07:24.918Z,26.58
2023-11-12T22:12:12.843Z,29.90
2023-11-12T22:17:00.063Z,27.45
2023-11-12T22:21:55.933Z,28.27
2023-11-12T22:27:03.705Z,27.73
2023-11-12T22:32:05.497Z,30.20
2023-11-12T22:37:00.304Z,28.70
2023-11-12T22:41:49.560Z,26.35
2023-11-12T22:46:37.058Z,27.50
2023-11-12T22:51:24.701Z,27.63
2023-11-12T22:56:14.647Z,24.95
2023-11-12T23:01:01.951Z,23.95
2023-11-12T23:05:50.039Z,23.17
2023-11-12T23:10:38.649Z,23.92
2023-11-12T23:15:28.488Z,24.08
2023-11-12T23:20:16.130Z,22.52
2023-11-12T23:25:03.526Z,20.05
2023-11-12T23:29:50.763Z,22.38
2023-11-12T23:34:40.588Z,21.33
2023-11-12T23:39:27.929Z,20.38
2023-11-12T23:44:15.159Z,20.42
2023-11-12T23:49:02.473Z,19.67
2023-11-12T23:53:52.661Z,18.50
2023-11-12T23:58:39.989Z,19.05
